Flight Track Log - Related Links

Times and Time Zones

All times are in EDT time to prevent confusion due to time zone crossing. See the N969BD flight status page for this flight to view local times or setup timezone preferences in your user account.

Time Position Orientation Groundspeed Altitude Reporting Facility
EDT Latitude Longitude Course Direction KTS MPH feet Rate Location/Type
Thu 04:20:01 PM 33.6158 -97.1017 112° Southeast 171 197 2,000  Level Fort Worth Center
Thu 04:22:01 PM 33.5842 -97.0394 121° Southeast 118 136 2,900 467 Climbing Fort Worth Center
Thu 04:23:01 PM 33.5653 -97.0022 121° Southeast 112 129 3,400 450 Climbing Fort Worth Center
Thu 04:24:01 PM 33.5528 -96.9722 117° Southeast 112 129 3,800 400 Climbing Fort Worth Center
Thu 04:25:00 PM 33.5136 -96.8908 112° Southeast  Level FlightAware Approximate
Thu 04:25:01 PM 33.5381 -96.9300 113° Southeast 119 137 4,200  Level Fort Worth Center
Thu 04:26:01 PM 33.5336 -96.8925 98° East 119 137 4,400 200 Climbing Fort Worth Center
Thu 04:27:01 PM 33.5314 -96.8503 94° East 126 145 4,600 350 Climbing Fort Worth Center
Thu 04:28:01 PM 33.5311 -96.8006 90° East 131 151 5,100 2,200 Climbing Fort Worth Center
Thu 04:29:01 PM 33.5414 -96.7481 77° East 137 158 9,000 350 Climbing Fort Worth Center
Thu 04:30:01 PM 33.5517 -96.7081 73° East 137 158 5,800 -1,400 Descending Fort Worth Center
Thu 04:31:01 PM 33.5617 -96.6581 76° East 142 163 6,200 400 Climbing Fort Worth Center
Thu 04:32:01 PM 33.5697 -96.6181 76° East 142 163 6,600 400 Climbing Fort Worth Center
Thu 04:33:01 PM 33.5758 -96.5683 82° East 142 163 7,000 200 Climbing Fort Worth Center
Thu 04:34:01 PM 33.5817 -96.5158 82° East 148 170 7,000  Level Fort Worth Center
Thu 04:35:01 PM 33.5875 -96.4658 82° East 159 183 7,000  Level Fort Worth Center
Thu 04:36:01 PM 33.5808 -96.4061 98° East 158 182 7,000  Level Fort Worth Center
Thu 04:37:01 PM 33.5575 -96.3617 122° Southeast 164 189 7,000  Level Fort Worth Center
Thu 04:38:01 PM 33.5300 -96.3094 122° Southeast 169 194 7,000  Level Fort Worth Center
Thu 04:39:01 PM 33.5067 -96.2675 124° Southeast 175 201 7,000  Level Fort Worth Center
Thu 04:40:01 PM 33.4811 -96.2131 119° Southeast 170 196 7,000  Level Fort Worth Center
Thu 04:41:01 PM 33.4597 -96.1711 121° Southeast 170 196 7,000  Level Fort Worth Center
Thu 04:42:01 PM 33.4319 -96.1167 121° Southeast 170 196 7,000  Level Fort Worth Center
Thu 04:43:01 PM 33.4086 -96.0722 122° Southeast 165 190 7,000  Level Fort Worth Center
Thu 04:44:01 PM 33.3808 -96.0203 123° Southeast 165 190 7,000 50 Level Fort Worth Center
Thu 04:45:01 PM 33.3492 -95.9911 142° Southeast 170 196 7,100  Climbing Fort Worth Center
Thu 04:46:01 PM 33.3111 -95.9444 134° Southeast 170 196 7,000 -50 Descending Fort Worth Center
Thu 04:47:01 PM 33.2836 -95.9050 130° Southeast 170 196 7,000  Level Fort Worth Center
Thu 04:48:01 PM 33.2517 -95.8558 128° Southeast 170 196 7,000  Level Fort Worth Center
Thu 04:49:01 PM 33.2303 -95.8117 120° Southeast 170 196 7,000  Level Fort Worth Center
Thu 04:50:01 PM 33.2044 -95.7575 120° Southeast 170 196 7,000  Level Fort Worth Center
Thu 04:51:01 PM 33.1831 -95.7131 120° Southeast 170 196 7,000  Level Fort Worth Center
Thu 04:52:01 PM 33.1617 -95.6739 123° Southeast 165 190 7,000  Level Fort Worth Center
Thu 04:53:01 PM 33.1294 -95.6200 126° Southeast 165 190 7,000  Level Fort Worth Center
Thu 04:54:01 PM 33.0975 -95.5686 127° Southeast 179 206 7,000  Level Fort Worth Center
Thu 04:55:01 PM 33.0697 -95.5244 127° Southeast 179 206 7,000  Level Fort Worth Center
Thu 04:56:01 PM 33.0461 -95.4778 121° Southeast 172 198 7,000  Level Fort Worth Center
Thu 04:57:01 PM 33.0181 -95.4289 124° Southeast 172 198 7,000  Level Fort Worth Center
Thu 04:58:01 PM 32.9922 -95.3800 122° Southeast 172 198 7,000  Level Fort Worth Center
Thu 04:59:01 PM 32.9686 -95.3311 120° Southeast 158 182 7,000  Level Fort Worth Center
Thu 05:00:01 PM 32.9386 -95.2847 128° Southeast 180 207 7,000  Level Fort Worth Center
Thu 05:01:01 PM 32.9106 -95.2383 126° Southeast 180 207 7,000  Level Fort Worth Center
Thu 05:02:01 PM 32.8828 -95.1919 125° Southeast 174 200 7,000  Level Fort Worth Center
Thu 05:03:01 PM 32.8567 -95.1431 122° Southeast 174 200 7,000  Level Fort Worth Center
Thu 05:04:01 PM 32.8267 -95.0944 126° Southeast 174 200 7,000  Level Fort Worth Center
Thu 05:05:01 PM 32.7986 -95.0458 124° Southeast 174 200 7,000  Level Fort Worth Center
Thu 05:06:01 PM 32.7725 -94.9969 122° Southeast 174 200 7,000  Level Fort Worth Center
Thu 05:07:01 PM 32.7447 -94.9508 126° Southeast 174 200 7,000  Level Fort Worth Center
Thu 05:08:01 PM 32.7167 -94.9047 126° Southeast 174 200 7,000  Level Fort Worth Center
Thu 05:09:01 PM 32.6883 -94.8561 125° Southeast 180 207 7,000  Level Fort Worth Center
Thu 05:10:01 PM 32.6581 -94.8028 124° Southeast 180 207 7,000  Level Fort Worth Center
Thu 05:11:01 PM 32.6342 -94.7567 122° Southeast 175 201 7,000 -34 Level Fort Worth Center
Thu 05:13:00 PM 32.5806 -94.6561 122° Southeast 178 205 6,900 -33 Descending Houston Center
Thu 05:14:02 PM 32.5522 -94.6078 125° Southeast 178 205 6,900  Level Houston Center
Thu 05:15:05 PM 32.5236 -94.5614 126° Southeast 177 204 6,900  Level Houston Center
Thu 05:16:06 PM 32.4944 -94.5147 127° Southeast 177 204 6,900 73 Level Houston Center
Thu 05:16:27 PM 32.4803 -94.5000 139° Southeast 175 201 7,000 80 Climbing Fort Worth Center
Thu 05:17:21 PM 32.4522 -94.4567 127° Southeast 176 203 7,000  Level Fort Worth Center
Thu 05:18:22 PM 32.4217 -94.4061 126° Southeast 179 206 7,000  Level Fort Worth Center
Thu 05:19:23 PM 32.3936 -94.3603 126° Southeast 174 200 7,000  Level Fort Worth Center
Thu 05:20:24 PM 32.3653 -94.3144 126° Southeast 172 198 7,000  Level Fort Worth Center
Thu 05:21:25 PM 32.3369 -94.2711 128° Southeast 174 200 7,000  Level Fort Worth Center
Thu 05:22:26 PM 32.3044 -94.2231 129° Southeast 176 203 7,000  Level Fort Worth Center
Thu 05:23:27 PM 32.2761 -94.1725 124° Southeast 178 205 7,000  Level Fort Worth Center
Thu 05:24:28 PM 32.2456 -94.1244 127° Southeast 179 206 7,000  Level Fort Worth Center
Thu 05:25:29 PM 32.2192 -94.0764 123° Southeast 180 207 7,000  Level Fort Worth Center
Thu 05:26:29 PM 32.1908 -94.0283 125° Southeast 179 206 7,000  Level Fort Worth Center
Thu 05:27:30 PM 32.1625 -93.9778 123° Southeast 180 207 7,000  Level Fort Worth Center
Thu 05:28:31 PM 32.1339 -93.9272 124° Southeast 177 204 7,000  Level Fort Worth Center
Thu 05:29:32 PM 32.1033 -93.8819 129° Southeast 176 203 7,000  Level Fort Worth Center
Thu 05:30:36 PM 32.0794 -93.8350 121° Southeast 179 206 7,000  Level Houston Center
Thu 05:31:38 PM 32.0483 -93.7847 126° Southeast 179 206 7,000  Level Houston Center
Thu 05:32:40 PM 32.0192 -93.7350 125° Southeast 183 211 7,000  Level Houston Center
Thu 05:33:42 PM 31.9844 -93.6786 126° Southeast 181 208 7,000  Level Houston Center
Thu 05:34:44 PM 31.9561 -93.6300 124° Southeast 180 207 7,000  Level Houston Center
Thu 05:35:46 PM 31.9267 -93.5825 126° Southeast 180 207 7,000  Level Houston Center
Thu 05:36:49 PM 31.8981 -93.5344 125° Southeast 180 207 7,000  Level Houston Center
Thu 05:37:44 PM 31.8692 -93.4856 125° Southeast 180 207 7,000  Level Houston Center
Thu 05:38:45 PM 31.8353 -93.4417 132° Southeast 177 204 7,000  Level Houston Center
Thu 05:39:45 PM 31.8017 -93.4028 135° Southeast 174 200 7,000  Level Houston Center
Thu 05:40:46 PM 31.7656 -93.3617 136° Southeast 173 199 7,000  Level Houston Center
Thu 05:41:41 PM 31.7364 -93.3275 135° Southeast 174 200 7,000  Level Houston Center
Thu 05:41:59 PM 31.7275 -93.3144 129° Southeast 172 198 7,000  Level Houston Center
Thu 05:42:47 PM 31.6958 -93.2817 139° Southeast 174 200 7,000  Level Houston Center
Thu 05:43:48 PM 31.6600 -93.2406 136° Southeast 176 203 7,000  Level Houston Center
Thu 05:44:03 PM 31.6567 -93.2353 127° Southeast 176 203 7,000  Level Houston Center
Thu 05:44:43 PM 31.6283 -93.2042 137° Southeast 175 201 7,000  Level Houston Center
Thu 05:45:05 PM 31.6225 -93.1956 129° Southeast 174 200 7,000  Level Houston Center
Thu 05:45:43 PM 31.5925 -93.1631 137° Southeast 173 199 7,000  Level Houston Center
Thu 05:46:08 PM 31.5819 -93.1475 129° Southeast 172 198 7,000  Level Houston Center
Thu 05:46:44 PM 31.5606 -93.1242 137° Southeast 174 200 7,000  Level Houston Center
Thu 05:47:10 PM 31.5472 -93.1067 132° Southeast 177 204 7,000  Level Houston Center
Thu 05:47:44 PM 31.5244 -93.0808 136° Southeast 176 203 7,000  Level Houston Center
Thu 05:48:12 PM 31.5122 -93.0661 134° Southeast 178 205 7,000  Level Houston Center
Thu 05:48:45 PM 31.4906 -93.0397 134° Southeast 179 206 7,000  Level Houston Center
Thu 05:49:14 PM 31.4783 -93.0236 132° Southeast 181 208 7,000  Level Houston Center
Thu 05:49:46 PM 31.4544 -92.9964 136° Southeast 180 207 7,000  Level Houston Center
Thu 05:50:16 PM 31.4433 -92.9844 137° Southeast 175 201 7,000  Level Houston Center
Thu 05:50:46 PM 31.4186 -92.9628 143° Southeast 173 199 7,000  Level Houston Center
Thu 05:51:18 PM 31.3975 -92.9422 140° Southeast 174 200 7,000  Level Houston Center
Thu 05:51:47 PM 31.3789 -92.9272 145° Southeast 171 197 7,000  Level Houston Center
Thu 05:52:20 PM 31.3614 -92.9061 134° Southeast 171 197 7,000  Level Houston Center
Thu 05:52:47 PM 31.3450 -92.8886 138° Southeast 175 201 7,000  Level Houston Center
Thu 05:53:22 PM 31.3253 -92.8672 137° Southeast 177 204 7,000  Level Houston Center
Thu 05:53:48 PM 31.3086 -92.8456 132° Southeast 177 204 7,000  Level Houston Center
Thu 05:54:24 PM 31.2928 -92.8250 132° Southeast 176 203 7,000  Level Houston Center
Thu 05:54:49 PM 31.2769 -92.8069 136° Southeast 174 200 7,000  Level Houston Center
Thu 05:55:27 PM 31.2589 -92.7842 133° Southeast 175 201 7,000  Level Houston Center
Thu 05:55:49 PM 31.2406 -92.7639 137° Southeast 177 204 7,000  Level Houston Center
Thu 05:56:29 PM 31.2181 -92.7342 132° Southeast 178 205 7,000  Level Houston Center
Thu 05:57:02 PM 31.1994 -92.7114 134° Southeast 181 208 7,000  Level Houston Center
Thu 05:57:31 PM 31.1825 -92.6933 138° Southeast 181 208 7,000  Level Houston Center
Thu 05:58:03 PM 31.1611 -92.6708 138° Southeast 182 209 7,000  Level Houston Center
Thu 05:58:33 PM 31.1453 -92.6536 137° Southeast 183 211 7,000 100 Level Houston Center
Thu 05:59:03 PM 31.1231 -92.6328 141° Southeast 182 209 7,100 97 Climbing Houston Center
Thu 05:59:35 PM 31.1075 -92.6136 133° Southeast 185 213 7,100  Level Houston Center
Thu 06:00:04 PM 31.0806 -92.5928 146° Southeast 181 208 7,100  Level Houston Center
Thu 06:00:37 PM 31.0622 -92.5836 157° South 188 216 7,100 200 Level Houston Center
Thu 06:01:04 PM 31.0369 -92.5653 148° Southeast 186 214 7,300 194 Climbing Houston Center
Thu 06:01:39 PM 31.0128 -92.5439 143° Southeast 181 208 7,300  Level Houston Center
Thu 06:02:05 PM 30.9931 -92.5350 159° South 182 209 7,300  Level Houston Center
Thu 06:02:41 PM 30.9656 -92.5283 168° South 181 208 7,300  Level Houston Center
Thu 06:03:43 PM 30.9300 -92.4903 137° Southeast 180 207 7,300  Level Houston Center
Thu 06:04:46 PM 30.9206 -92.4336 101° East 184 212 7,300  Level Houston Center
Thu 06:05:48 PM 30.9208 -92.3750 90° East 183 211 7,300 -97 Level Houston Center
Thu 06:06:50 PM 30.9183 -92.3042 92° East 182 209 7,100 -387 Descending Houston Center
Thu 06:07:52 PM 30.9114 -92.2461 98° East 182 209 6,500 -387 Descending Houston Center
Thu 06:08:54 PM 30.9011 -92.1881 102° East 183 211 6,300 -435 Descending Houston Center
Thu 06:09:56 PM 30.8761 -92.1392 121° Southeast 176 203 5,600 -774 Descending Houston Center
Thu 06:10:58 PM 30.8508 -92.0922 122° Southeast 174 200 4,700 -871 Descending Houston Center
Thu 06:12:00 PM 30.8283 -92.0428 118° Southeast 173 199 3,800 -774 Descending Houston Center
Thu 06:13:02 PM 30.8047 -91.9842 115° Southeast 169 194 3,100 -288 Descending Houston Center
Thu 06:14:05 PM 30.7903 -91.9381 110° East 161 185 3,200  Climbing Houston Center
Thu 06:15:07 PM 30.7733 -91.8928 114° Southeast 155 178 3,100  Descending Houston Center
Thu 06:16:09 PM 30.7594 -91.8383 107° East 164 189 3,200  Climbing Houston Center
Thu 06:17:11 PM 30.7639 -91.7847 84° East 165 190 3,100  Descending Houston Center
Thu 06:18:13 PM 30.7728 -91.7164 81° East 172 198 3,200 48 Climbing Houston Center
Thu 06:19:15 PM 30.7767 -91.6625 85° East 172 198 3,200  Level Houston Center
Thu 06:20:17 PM 30.7736 -91.6067 94° East 173 199 3,200  Level Houston Center
Thu 06:21:19 PM 30.7678 -91.5497 97° East 176 203 3,200  Level Houston Center
Thu 06:22:21 PM 30.7475 -91.4961 114° Southeast 179 206 3,200 -48 Level Houston Center
Thu 06:23:24 PM 30.7181 -91.4467 125° Southeast 183 211 3,100 -48 Descending Houston Center
Thu 06:24:26 PM 30.6864 -91.3922 124° Southeast 181 208 3,100  Level Houston Center
Thu 06:26:00 PM 30.6530 -91.3208 119° Southeast  Level FlightAware Approximate
Thu 06:29:24 PM 30.5447 -91.1897 119° Southeast 189 217 3,100  Level Houston Center
Thu 06:30:26 PM 30.5231 -91.1542 125° Southeast 171 197 3,100  Level Houston Center
Thu 06:31:28 PM 30.4931 -91.0989 122° Southeast 166 191 3,100  Level Houston Center
Thu 06:32:30 PM 30.4703 -91.0508 119° Southeast 168 193 3,100 48 Level Houston Center
Thu 06:33:00 PM 30.5031 -91.0025 119° Southeast  Level FlightAware Approximate
Thu 06:33:32 PM 30.4458 -91.0036 121° Southeast 169 194 3,200  Level Houston Center
Thu 06:34:00 PM 30.4816 -90.9571 119° Southeast  Level FlightAware Approximate
Thu 06:34:34 PM 30.4208 -90.9561 121° Southeast 173 199 3,100  Level Houston Center
Thu 06:35:26 PM 30.3975 -90.9117 121° Southeast 170 196 3,100  Level Houston Center
Thu 06:35:51 PM 30.3867 -90.8906 121° Southeast 169 194 3,100  Level Houston Center
Thu 06:36:45 PM 30.3669 -90.8503 120° Southeast 167 192 3,100  Level Houston Center
Thu 06:37:46 PM 30.3425 -90.8003 120° Southeast 170 196 3,100  Level Houston Center
Thu 06:38:43 PM 30.3231 -90.7594 119° Southeast 169 194 3,100  Level Houston Center
Thu 06:39:45 PM 30.2997 -90.7119 120° Southeast 170 196 3,100  Level Houston Center
Thu 06:40:47 PM 30.2778 -90.6681 120° Southeast 165 190 3,100  Level Houston Center
Thu 06:41:49 PM 30.2561 -90.6231 119° Southeast 162 186 3,100  Level Houston Center
Thu 06:42:57 PM 30.2317 -90.5661 116° Southeast 154 177 3,100  Level Houston Center
Thu 06:43:58 PM 30.2178 -90.5161 108° East 162 186 3,100  Level Houston Center
Thu 06:44:58 PM 30.2019 -90.4686 111° Southeast 162 186 3,100  Level Houston Center
Thu 06:45:58 PM 30.1919 -90.4228 104° East 161 185 3,100 -52 Level Houston Center
Thu 06:46:54 PM 30.1639 -90.3811 128° Southeast 159 183 3,000 -387 Descending Houston Center
Thu 06:48:02 PM 30.1358 -90.3450 132° Southeast 161 185 2,300 -462 Descending Houston Center
Thu 06:49:04 PM 30.1006 -90.3014 133° Southeast 158 182 2,000 -97 Descending Houston Center
Thu 06:50:06 PM 30.0736 -90.2664 132° Southeast 153 176 2,100 46 Climbing Houston Center
Thu 06:51:15 PM 30.0419 -90.2200 128° Southeast 147 169 2,100  Level Houston Center
Thu 06:52:10 PM 30.0272 -90.1897 119° Southeast 148 170 2,100 -154 Level Houston Center
Thu 06:53:12 PM 30.0253 -90.1356 92° East 164 189 1,800 -97 Descending Houston Center
Thu 06:54:14 PM 30.0119 -90.0797 105° East 158 182 1,900 -192 Climbing Houston Center
Thu 06:55:17 PM 30.0050 -90.0408 102° East 147 169 1,400 -336 Descending Houston Center
Thu 06:56:19 PM 30.0344 -90.0044 47° Northeast 149 171 1,200 -194 Descending Houston Center
Thu 06:58:00 PM 30.0424 -90.0283 291° West  Level Estimated

Login

Don't have an account? Register now (free) for customized features, flight alerts, and more!